sensor_id;sensor_type;location;lat;lon;timestamp;pressure;altitude;pressure_sealevel;temperature;humidity
4598;BME280;62772;48.646;8.906;2023-09-12T00:00:33;96005.91;;;15.99;100.00
4598;BME280;62772;48.646;8.906;2023-09-12T00:05:34;96002.16;;;15.84;100.00
4598;BME280;62772;48.646;8.906;2023-09-12T00:10:34;96003.09;;;16.11;100.00
4598;BME280;62772;48.646;8.906;2023-09-12T00:15:35;95999.38;;;16.55;100.00
4598;BME280;62772;48.646;8.906;2023-09-12T00:20:38;95994.25;;;16.49;100.00
4598;BME280;62772;48.646;8.906;2023-09-12T00:25:38;95999.63;;;16.89;100.00
4598;BME280;62772;48.646;8.906;2023-09-12T00:30:39;95992.06;;;16.55;100.00
4598;BME280;62772;48.646;8.906;2023-09-12T00:35:39;95993.38;;;16.06;100.00
4598;BME280;62772;48.646;8.906;2023-09-12T00:40:40;95979.50;;;15.69;100.00
4598;BME280;62772;48.646;8.906;2023-09-12T00:45:41;95990.75;;;15.74;100.00
4598;BME280;62772;48.646;8.906;2023-09-12T00:50:42;95979.44;;;16.20;100.00
4598;BME280;62772;48.646;8.906;2023-09-12T00:55:48;95973.47;;;15.75;100.00
4598;BME280;62772;48.646;8.906;2023-09-12T01:00:50;95968.16;;;15.95;100.00
4598;BME280;62772;48.646;8.906;2023-09-12T01:05:51;95974.69;;;16.13;100.00
4598;BME280;62772;48.646;8.906;2023-09-12T01:10:54;95979.66;;;16.31;100.00
4598;BME280;62772;48.646;8.906;2023-09-12T01:15:55;95981.13;;;15.73;100.00
4598;BME280;62772;48.646;8.906;2023-09-12T01:31:25;95976.75;;;16.20;100.00
4598;BME280;62772;48.646;8.906;2023-09-12T01:36:26;95979.78;;;15.99;100.00
4598;BME280;62772;48.646;8.906;2023-09-12T01:41:27;95977.53;;;15.50;100.00
4598;BME280;62772;48.646;8.906;2023-09-12T01:46:30;95977.97;;;15.20;100.00
4598;BME280;62772;48.646;8.906;2023-09-12T01:51:31;95968.41;;;15.54;100.00
4598;BME280;62772;48.646;8.906;2023-09-12T01:56:32;95974.88;;;15.18;100.00
4598;BME280;62772;48.646;8.906;2023-09-12T02:01:33;95971.69;;;15.48;100.00
4598;BME280;62772;48.646;8.906;2023-09-12T02:06:34;95959.72;;;15.61;100.00
4598;BME280;62772;48.646;8.906;2023-09-12T02:11:34;95971.13;;;15.22;100.00
4598;BME280;62772;48.646;8.906;2023-09-12T02:16:36;95962.84;;;15.47;100.00
4598;BME280;62772;48.646;8.906;2023-09-12T02:21:40;95965.22;;;15.68;100.00
4598;BME280;62772;48.646;8.906;2023-09-12T02:26:40;95957.84;;;15.65;100.00
4598;BME280;62772;48.646;8.906;2023-09-12T02:31:41;95954.50;;;16.04;100.00
4598;BME280;62772;48.646;8.906;2023-09-12T02:36:41;95956.31;;;16.00;100.00
4598;BME280;62772;48.646;8.906;2023-09-12T02:41:42;95963.56;;;16.15;100.00
4598;BME280;62772;48.646;8.906;2023-09-12T02:46:42;95959.28;;;16.14;100.00
4598;BME280;62772;48.646;8.906;2023-09-12T02:51:45;95962.91;;;16.02;100.00
4598;BME280;62772;48.646;8.906;2023-09-12T02:56:45;95952.00;;;15.95;100.00
4598;BME280;62772;48.646;8.906;2023-09-12T03:01:46;95953.06;;;16.10;100.00
4598;BME280;62772;48.646;8.906;2023-09-12T03:06:46;95954.97;;;15.90;100.00
4598;BME280;62772;48.646;8.906;2023-09-12T03:11:49;95953.41;;;15.73;100.00
4598;BME280;62772;48.646;8.906;2023-09-12T03:16:50;95949.56;;;15.90;100.00
4598;BME280;62772;48.646;8.906;2023-09-12T03:21:50;95962.34;;;15.93;100.00
4598;BME280;62772;48.646;8.906;2023-09-12T03:26:51;95951.69;;;15.81;100.00
4598;BME280;62772;48.646;8.906;2023-09-12T03:31:52;95946.41;;;16.04;100.00
4598;BME280;62772;48.646;8.906;2023-09-12T03:36:52;95947.03;;;15.62;100.00
4598;BME280;62772;48.646;8.906;2023-09-12T03:41:53;95937.25;;;15.73;100.00
4598;BME280;62772;48.646;8.906;2023-09-12T03:46:53;95937.88;;;15.47;100.00
4598;BME280;62772;48.646;8.906;2023-09-12T03:51:55;95927.28;;;15.73;100.00
4598;BME280;62772;48.646;8.906;2023-09-12T03:56:56;95927.47;;;15.81;100.00
4598;BME280;62772;48.646;8.906;2023-09-12T04:01:56;95935.91;;;15.63;100.00
4598;BME280;62772;48.646;8.906;2023-09-12T04:06:57;95932.09;;;15.64;100.00
4598;BME280;62772;48.646;8.906;2023-09-12T04:11:57;95935.91;;;15.63;100.00
4598;BME280;62772;48.646;8.906;2023-09-12T04:16:57;95931.16;;;15.56;100.00
4598;BME280;62772;48.646;8.906;2023-09-12T04:22:00;95933.69;;;15.33;100.00
4598;BME280;62772;48.646;8.906;2023-09-12T04:27:00;95930.03;;;15.57;100.00
4598;BME280;62772;48.646;8.906;2023-09-12T04:32:05;95917.03;;;15.79;100.00
4598;BME280;62772;48.646;8.906;2023-09-12T04:37:05;95924.44;;;15.66;100.00
4598;BME280;62772;48.646;8.906;2023-09-12T04:42:06;95928.94;;;15.27;100.00
4598;BME280;62772;48.646;8.906;2023-09-12T04:47:07;95925.69;;;15.53;100.00
4598;BME280;62772;48.646;8.906;2023-09-12T04:52:08;95929.47;;;15.68;100.00
4598;BME280;62772;48.646;8.906;2023-09-12T04:57:09;95924.00;;;15.64;100.00
4598;BME280;62772;48.646;8.906;2023-09-12T05:02:10;95927.16;;;15.86;100.00
4598;BME280;62772;48.646;8.906;2023-09-12T05:07:10;95928.00;;;15.70;100.00
4598;BME280;62772;48.646;8.906;2023-09-12T05:12:11;95931.94;;;15.92;100.00
4598;BME280;62772;48.646;8.906;2023-09-12T05:17:11;95937.94;;;15.86;100.00
4598;BME280;62772;48.646;8.906;2023-09-12T05:22:12;95940.50;;;15.98;100.00
4598;BME280;62772;48.646;8.906;2023-09-12T05:27:12;95939.38;;;16.19;100.00
4598;BME280;62772;48.646;8.906;2023-09-12T05:32:13;95942.41;;;16.37;100.00
4598;BME280;62772;48.646;8.906;2023-09-12T05:37:16;95944.91;;;16.45;100.00
4598;BME280;62772;48.646;8.906;2023-09-12T05:42:16;95958.56;;;16.56;100.00
4598;BME280;62772;48.646;8.906;2023-09-12T05:47:21;95957.78;;;16.56;100.00
4598;BME280;62772;48.646;8.906;2023-09-12T05:52:22;95957.69;;;16.72;100.00
4598;BME280;62772;48.646;8.906;2023-09-12T05:57:22;95964.38;;;16.58;100.00
4598;BME280;62772;48.646;8.906;2023-09-12T06:02:24;95965.66;;;16.64;100.00
4598;BME280;62772;48.646;8.906;2023-09-12T06:07:25;95969.53;;;16.67;100.00
4598;BME280;62772;48.646;8.906;2023-09-12T06:12:25;95959.75;;;16.78;100.00
4598;BME280;62772;48.646;8.906;2023-09-12T06:17:26;95962.72;;;16.73;100.00
4598;BME280;62772;48.646;8.906;2023-09-12T06:22:26;95960.94;;;16.81;100.00
4598;BME280;62772;48.646;8.906;2023-09-12T06:27:27;95968.94;;;16.97;100.00
4598;BME280;62772;48.646;8.906;2023-09-12T06:32:27;95974.16;;;17.09;100.00
4598;BME280;62772;48.646;8.906;2023-09-12T06:37:28;95971.69;;;17.23;100.00
4598;BME280;62772;48.646;8.906;2023-09-12T06:42:28;95975.16;;;17.24;100.00
4598;BME280;62772;48.646;8.906;2023-09-12T06:47:29;95978.72;;;17.28;100.00
4598;BME280;62772;48.646;8.906;2023-09-12T06:52:29;95976.03;;;17.55;100.00
4598;BME280;62772;48.646;8.906;2023-09-12T06:57:30;95979.34;;;17.71;100.00
4598;BME280;62772;48.646;8.906;2023-09-12T07:02:30;95985.50;;;18.25;100.00
4598;BME280;62772;48.646;8.906;2023-09-12T07:07:31;95987.88;;;18.30;100.00
4598;BME280;62772;48.646;8.906;2023-09-12T07:12:32;95996.19;;;18.48;100.00
4598;BME280;62772;48.646;8.906;2023-09-12T07:17:34;95992.22;;;18.73;100.00
4598;BME280;62772;48.646;8.906;2023-09-12T07:22:34;96000.09;;;18.85;100.00
4598;BME280;62772;48.646;8.906;2023-09-12T07:27:35;96005.28;;;19.01;100.00
4598;BME280;62772;48.646;8.906;2023-09-12T07:32:35;96001.38;;;19.43;100.00
4598;BME280;62772;48.646;8.906;2023-09-12T07:37:36;96005.84;;;19.73;100.00
4598;BME280;62772;48.646;8.906;2023-09-12T07:42:36;96003.88;;;19.66;100.00
4598;BME280;62772;48.646;8.906;2023-09-12T07:47:37;96005.75;;;19.58;100.00
4598;BME280;62772;48.646;8.906;2023-09-12T07:52:37;96006.88;;;19.50;100.00
4598;BME280;62772;48.646;8.906;2023-09-12T07:57:37;95997.09;;;19.38;100.00
4598;BME280;62772;48.646;8.906;2023-09-12T08:02:38;96000.19;;;19.40;100.00
4598;BME280;62772;48.646;8.906;2023-09-12T08:07:38;96000.53;;;19.32;100.00
4598;BME280;62772;48.646;8.906;2023-09-12T08:12:39;96002.84;;;19.82;100.00
4598;BME280;62772;48.646;8.906;2023-09-12T08:17:40;96011.03;;;19.92;100.00
4598;BME280;62772;48.646;8.906;2023-09-12T08:22:41;96006.94;;;20.24;100.00
4598;BME280;62772;48.646;8.906;2023-09-12T08:27:41;96010.06;;;20.26;100.00
4598;BME280;62772;48.646;8.906;2023-09-12T08:32:44;96008.25;;;20.62;100.00
4598;BME280;62772;48.646;8.906;2023-09-12T08:37:45;96006.03;;;20.90;100.00
4598;BME280;62772;48.646;8.906;2023-09-12T08:42:47;96012.63;;;20.92;100.00
4598;BME280;62772;48.646;8.906;2023-09-12T08:47:53;96015.38;;;21.03;100.00
4598;BME280;62772;48.646;8.906;2023-09-12T08:52:55;96020.81;;;21.28;100.00
4598;BME280;62772;48.646;8.906;2023-09-12T08:57:56;96016.59;;;21.81;100.00
4598;BME280;62772;48.646;8.906;2023-09-12T09:02:58;96005.66;;;22.10;100.00
4598;BME280;62772;48.646;8.906;2023-09-12T09:07:58;96008.44;;;21.81;100.00
4598;BME280;62772;48.646;8.906;2023-09-12T09:13:00;96010.75;;;21.79;100.00
4598;BME280;62772;48.646;8.906;2023-09-12T09:18:02;96003.75;;;21.89;100.00
4598;BME280;62772;48.646;8.906;2023-09-12T09:23:05;95997.06;;;22.37;100.00
4598;BME280;62772;48.646;8.906;2023-09-12T09:28:17;95994.94;;;22.70;100.00
4598;BME280;62772;48.646;8.906;2023-09-12T09:33:18;95979.34;;;23.41;100.00
4598;BME280;62772;48.646;8.906;2023-09-12T09:38:19;95971.25;;;23.75;100.00
4598;BME280;62772;48.646;8.906;2023-09-12T09:43:20;95972.81;;;23.31;100.00
4598;BME280;62772;48.646;8.906;2023-09-12T09:48:23;95980.44;;;22.91;100.00
4598;BME280;62772;48.646;8.906;2023-09-12T09:53:27;95975.41;;;22.89;100.00
4598;BME280;62772;48.646;8.906;2023-09-12T09:58:27;95963.72;;;22.89;100.00
4598;BME280;62772;48.646;8.906;2023-09-12T10:03:28;95974.91;;;23.01;100.00
4598;BME280;62772;48.646;8.906;2023-09-12T10:08:31;95971.81;;;23.55;97.44
4598;BME280;62772;48.646;8.906;2023-09-12T10:13:33;95974.41;;;24.77;82.70
4598;BME280;62772;48.646;8.906;2023-09-12T10:18:36;95977.97;;;24.74;93.42
4598;BME280;62772;48.646;8.906;2023-09-12T10:23:44;95983.72;;;24.79;94.24
4598;BME280;62772;48.646;8.906;2023-09-12T10:28:45;95983.03;;;24.41;97.46
4598;BME280;62772;48.646;8.906;2023-09-12T10:33:49;95978.72;;;24.43;100.00
4598;BME280;62772;48.646;8.906;2023-09-12T10:38:50;95973.00;;;24.65;98.93
4598;BME280;62772;48.646;8.906;2023-09-12T10:43:53;95963.47;;;24.46;97.14
4598;BME280;62772;48.646;8.906;2023-09-12T10:48:54;95967.69;;;24.51;94.46
4598;BME280;62772;48.646;8.906;2023-09-12T10:53:55;95961.41;;;24.54;94.44
4598;BME280;62772;48.646;8.906;2023-09-12T11:09:25;95956.09;;;25.01;86.26
4598;BME280;62772;48.646;8.906;2023-09-12T11:14:26;95951.28;;;24.85;89.55
4598;BME280;62772;48.646;8.906;2023-09-12T11:19:26;95945.81;;;26.23;77.96
4598;BME280;62772;48.646;8.906;2023-09-12T11:24:27;95944.47;;;25.92;78.94
4598;BME280;62772;48.646;8.906;2023-09-12T11:29:38;95927.75;;;25.42;75.70
4598;BME280;62772;48.646;8.906;2023-09-12T11:34:43;95930.72;;;25.51;75.26
4598;BME280;62772;48.646;8.906;2023-09-12T11:39:44;95923.69;;;25.74;71.62
4598;BME280;62772;48.646;8.906;2023-09-12T11:44:45;95934.50;;;25.58;74.27
4598;BME280;62772;48.646;8.906;2023-09-12T11:49:46;95923.22;;;26.19;61.65
4598;BME280;62772;48.646;8.906;2023-09-12T11:54:46;95931.34;;;26.43;63.06
4598;BME280;62772;48.646;8.906;2023-09-12T11:59:48;95923.03;;;26.67;56.79
4598;BME280;62772;48.646;8.906;2023-09-12T12:04:49;95916.81;;;26.66;57.11
4598;BME280;62772;48.646;8.906;2023-09-12T12:09:50;95919.97;;;26.24;55.46
4598;BME280;62772;48.646;8.906;2023-09-12T12:14:51;95925.91;;;26.03;61.70
4598;BME280;62772;48.646;8.906;2023-09-12T12:19:51;95915.59;;;26.11;62.80
4598;BME280;62772;48.646;8.906;2023-09-12T12:24:53;95911.16;;;26.17;69.44
4598;BME280;62772;48.646;8.906;2023-09-12T12:29:53;95907.38;;;26.67;61.38
4598;BME280;62772;48.646;8.906;2023-09-12T12:34:54;95902.78;;;27.13;60.81
4598;BME280;62772;48.646;8.906;2023-09-12T12:39:55;95906.38;;;27.10;59.04
4598;BME280;62772;48.646;8.906;2023-09-12T12:45:19;95895.22;;;27.01;55.56
4598;BME280;62772;48.646;8.906;2023-09-12T12:50:20;95895.31;;;26.65;60.34
4598;BME280;62772;48.646;8.906;2023-09-12T12:55:21;95897.47;;;26.53;75.81
4598;BME280;62772;48.646;8.906;2023-09-12T13:00:21;95893.72;;;26.47;65.93
4598;BME280;62772;48.646;8.906;2023-09-12T13:05:28;95894.63;;;26.77;63.95
4598;BME280;62772;48.646;8.906;2023-09-12T13:10:29;95900.91;;;26.77;76.16
4598;BME280;62772;48.646;8.906;2023-09-12T13:15:30;95886.09;;;26.55;76.01
4598;BME280;62772;48.646;8.906;2023-09-12T13:20:31;95893.16;;;26.36;77.37
4598;BME280;62772;48.646;8.906;2023-09-12T13:25:32;95883.44;;;26.71;79.17
4598;BME280;62772;48.646;8.906;2023-09-12T13:30:32;95887.53;;;26.79;75.34
4598;BME280;62772;48.646;8.906;2023-09-12T13:35:33;95874.53;;;26.84;77.09
4598;BME280;62772;48.646;8.906;2023-09-12T13:40:33;95872.91;;;26.86;73.88
4598;BME280;62772;48.646;8.906;2023-09-12T13:45:34;95864.00;;;26.99;71.62
4598;BME280;62772;48.646;8.906;2023-09-12T13:50:35;95862.81;;;27.00;76.18
4598;BME280;62772;48.646;8.906;2023-09-12T13:55:36;95855.84;;;27.11;71.65
4598;BME280;62772;48.646;8.906;2023-09-12T14:00:37;95854.63;;;27.29;71.02
4598;BME280;62772;48.646;8.906;2023-09-12T14:05:37;95864.56;;;27.23;71.27
4598;BME280;62772;48.646;8.906;2023-09-12T14:10:38;95864.22;;;27.21;69.76
4598;BME280;62772;48.646;8.906;2023-09-12T14:15:38;95871.94;;;26.93;70.59
4598;BME280;62772;48.646;8.906;2023-09-12T14:20:38;95867.69;;;26.92;70.44
4598;BME280;62772;48.646;8.906;2023-09-12T14:25:39;95883.44;;;26.88;69.45
4598;BME280;62772;48.646;8.906;2023-09-12T14:30:40;95872.47;;;26.88;72.07
4598;BME280;62772;48.646;8.906;2023-09-12T14:35:44;95881.44;;;26.88;70.31
4598;BME280;62772;48.646;8.906;2023-09-12T14:40:45;95887.19;;;26.94;67.92
4598;BME280;62772;48.646;8.906;2023-09-12T14:45:45;95888.47;;;26.89;70.50
4598;BME280;62772;48.646;8.906;2023-09-12T14:50:46;95876.34;;;26.90;72.52
4598;BME280;62772;48.646;8.906;2023-09-12T14:55:49;95872.03;;;26.73;74.98
4598;BME280;62772;48.646;8.906;2023-09-12T15:00:49;95868.00;;;26.94;70.16
4598;BME280;62772;48.646;8.906;2023-09-12T15:05:50;95866.31;;;27.00;72.97
4598;BME280;62772;48.646;8.906;2023-09-12T15:10:50;95868.09;;;26.90;72.71
4598;BME280;62772;48.646;8.906;2023-09-12T15:15:51;95868.34;;;26.96;72.94
4598;BME280;62772;48.646;8.906;2023-09-12T15:20:52;95872.38;;;26.91;69.43
4598;BME280;62772;48.646;8.906;2023-09-12T15:25:53;95872.38;;;26.91;73.17
4598;BME280;62772;48.646;8.906;2023-09-12T15:30:53;95855.69;;;26.86;72.09
4598;BME280;62772;48.646;8.906;2023-09-12T15:35:54;95869.47;;;26.82;73.76
4598;BME280;62772;48.646;8.906;2023-09-12T15:40:54;95871.84;;;26.80;73.80
4598;BME280;62772;48.646;8.906;2023-09-12T15:45:56;95856.28;;;26.77;71.90
4598;BME280;62772;48.646;8.906;2023-09-12T15:50:57;95864.69;;;26.70;75.57
4598;BME280;62772;48.646;8.906;2023-09-12T15:55:57;95864.69;;;26.70;76.89
4598;BME280;62772;48.646;8.906;2023-09-12T16:00:58;95859.19;;;26.70;75.44
4598;BME280;62772;48.646;8.906;2023-09-12T16:05:59;95861.44;;;26.55;84.82
4598;BME280;62772;48.646;8.906;2023-09-12T16:11:00;95870.16;;;26.33;97.40
4598;BME280;62772;48.646;8.906;2023-09-12T16:16:00;95878.84;;;25.88;100.00
4598;BME280;62772;48.646;8.906;2023-09-12T16:21:01;95880.28;;;25.96;100.00
4598;BME280;62772;48.646;8.906;2023-09-12T16:26:02;95902.91;;;25.77;100.00
4598;BME280;62772;48.646;8.906;2023-09-12T16:31:02;95910.47;;;25.69;90.15
4598;BME280;62772;48.646;8.906;2023-09-12T16:36:03;95911.19;;;25.02;97.69
4598;BME280;62772;48.646;8.906;2023-09-12T16:41:03;95915.34;;;24.87;92.09
4598;BME280;62772;48.646;8.906;2023-09-12T16:46:05;95918.50;;;24.58;92.29
4598;BME280;62772;48.646;8.906;2023-09-12T16:51:06;95914.06;;;24.68;92.64
4598;BME280;62772;48.646;8.906;2023-09-12T16:56:06;95908.91;;;24.73;90.13
4598;BME280;62772;48.646;8.906;2023-09-12T17:01:06;95903.66;;;24.28;90.65
4598;BME280;62772;48.646;8.906;2023-09-12T17:06:07;95891.94;;;23.97;86.88
4598;BME280;62772;48.646;8.906;2023-09-12T17:11:07;95889.63;;;23.95;86.64
4598;BME280;62772;48.646;8.906;2023-09-12T17:16:08;95895.94;;;23.88;88.72
4598;BME280;62772;48.646;8.906;2023-09-12T17:21:08;95890.25;;;24.10;87.59
4598;BME280;62772;48.646;8.906;2023-09-12T17:26:09;95890.09;;;23.52;81.43
4598;BME280;62772;48.646;8.906;2023-09-12T17:31:09;95885.88;;;23.44;84.76
4598;BME280;62772;48.646;8.906;2023-09-12T17:36:11;95875.63;;;23.17;85.85
4598;BME280;62772;48.646;8.906;2023-09-12T17:41:11;95879.59;;;23.50;83.10
4598;BME280;62772;48.646;8.906;2023-09-12T17:46:12;95886.63;;;23.03;82.02
4598;BME280;62772;48.646;8.906;2023-09-12T17:51:12;95888.94;;;23.04;83.30
4598;BME280;62772;48.646;8.906;2023-09-12T17:56:13;95886.97;;;23.12;80.09
4598;BME280;62772;48.646;8.906;2023-09-12T18:01:13;95884.69;;;22.99;82.14
4598;BME280;62772;48.646;8.906;2023-09-12T18:06:14;95892.56;;;22.87;82.96
4598;BME280;62772;48.646;8.906;2023-09-12T18:11:14;95897.22;;;22.90;80.29
4598;BME280;62772;48.646;8.906;2023-09-12T18:16:15;95902.91;;;22.50;81.03
4598;BME280;62772;48.646;8.906;2023-09-12T18:21:17;95909.56;;;22.42;85.42
4598;BME280;62772;48.646;8.906;2023-09-12T18:26:17;95908.34;;;21.51;90.54
4598;BME280;62772;48.646;8.906;2023-09-12T18:31:18;95924.22;;;21.45;94.39
4598;BME280;62772;48.646;8.906;2023-09-12T18:36:19;95932.78;;;21.22;97.97
4598;BME280;62772;48.646;8.906;2023-09-12T18:41:19;95952.94;;;21.61;99.71
4598;BME280;62772;48.646;8.906;2023-09-12T18:46:20;95958.34;;;20.99;96.93
4598;BME280;62772;48.646;8.906;2023-09-12T18:51:21;95950.97;;;21.36;100.00
4598;BME280;62772;48.646;8.906;2023-09-12T18:56:21;95951.34;;;21.74;98.77
4598;BME280;62772;48.646;8.906;2023-09-12T19:01:22;95952.13;;;21.74;96.65
4598;BME280;62772;48.646;8.906;2023-09-12T19:06:23;95956.81;;;21.45;94.03
4598;BME280;62772;48.646;8.906;2023-09-12T19:11:23;95961.09;;;21.64;96.75
4598;BME280;62772;48.646;8.906;2023-09-12T19:16:24;95960.59;;;22.09;94.56
4598;BME280;62772;48.646;8.906;2023-09-12T19:21:24;95966.13;;;21.55;91.51
4598;BME280;62772;48.646;8.906;2023-09-12T19:26:25;95973.88;;;21.74;90.39
4598;BME280;62772;48.646;8.906;2023-09-12T19:31:26;95976.19;;;21.90;91.09
4598;BME280;62772;48.646;8.906;2023-09-12T19:36:26;95968.44;;;21.82;91.75
4598;BME280;62772;48.646;8.906;2023-09-12T19:41:29;95964.22;;;21.48;92.87
4598;BME280;62772;48.646;8.906;2023-09-12T19:46:31;95974.28;;;21.33;94.08
4598;BME280;62772;48.646;8.906;2023-09-12T19:51:31;95980.00;;;20.74;97.87
4598;BME280;62772;48.646;8.906;2023-09-12T19:56:32;95975.22;;;20.35;100.00
4598;BME280;62772;48.646;8.906;2023-09-12T20:01:33;95974.97;;;20.73;100.00
4598;BME280;62772;48.646;8.906;2023-09-12T20:06:40;95976.91;;;20.76;100.00
4598;BME280;62772;48.646;8.906;2023-09-12T20:11:40;95980.84;;;20.86;100.00
4598;BME280;62772;48.646;8.906;2023-09-12T20:16:41;95987.03;;;20.82;100.00
4598;BME280;62772;48.646;8.906;2023-09-12T20:21:42;95980.00;;;20.71;100.00
4598;BME280;62772;48.646;8.906;2023-09-12T20:26:43;95990.94;;;20.01;100.00
4598;BME280;62772;48.646;8.906;2023-09-12T20:31:46;95988.81;;;19.20;100.00
4598;BME280;62772;48.646;8.906;2023-09-12T20:36:48;95993.88;;;19.26;100.00
4598;BME280;62772;48.646;8.906;2023-09-12T20:41:50;96014.06;;;19.32;100.00
4598;BME280;62772;48.646;8.906;2023-09-12T20:46:50;96016.50;;;19.03;100.00
4598;BME280;62772;48.646;8.906;2023-09-12T20:51:51;96019.47;;;19.32;100.00
4598;BME280;62772;48.646;8.906;2023-09-12T20:56:51;96020.94;;;19.22;100.00
4598;BME280;62772;48.646;8.906;2023-09-12T21:01:52;96005.59;;;19.40;100.00
4598;BME280;62772;48.646;8.906;2023-09-12T21:06:52;96012.41;;;19.72;100.00
4598;BME280;62772;48.646;8.906;2023-09-12T21:11:53;96024.22;;;19.46;100.00
4598;BME280;62772;48.646;8.906;2023-09-12T21:16:53;96034.84;;;19.72;100.00
4598;BME280;62772;48.646;8.906;2023-09-12T21:21:54;96026.19;;;19.49;100.00
4598;BME280;62772;48.646;8.906;2023-09-12T21:26:54;96039.69;;;19.04;100.00
4598;BME280;62772;48.646;8.906;2023-09-12T21:31:55;96037.47;;;19.13;100.00
4598;BME280;62772;48.646;8.906;2023-09-12T21:36:56;96032.78;;;18.73;100.00
4598;BME280;62772;48.646;8.906;2023-09-12T21:41:56;96044.06;;;18.48;100.00
4598;BME280;62772;48.646;8.906;2023-09-12T21:46:57;96046.41;;;18.49;100.00
4598;BME280;62772;48.646;8.906;2023-09-12T21:51:58;96063.50;;;18.27;100.00
4598;BME280;62772;48.646;8.906;2023-09-12T21:56:58;96062.78;;;18.03;100.00
4598;BME280;62772;48.646;8.906;2023-09-12T22:01:59;96065.13;;;18.05;100.00
4598;BME280;62772;48.646;8.906;2023-09-12T22:06:59;96069.59;;;18.20;100.00
4598;BME280;62772;48.646;8.906;2023-09-12T22:12:00;96072.31;;;18.51;100.00
4598;BME280;62772;48.646;8.906;2023-09-12T22:17:00;96072.00;;;18.56;100.00
4598;BME280;62772;48.646;8.906;2023-09-12T22:22:00;96063.91;;;18.90;100.00
4598;BME280;62772;48.646;8.906;2023-09-12T22:27:01;96056.88;;;19.19;100.00
4598;BME280;62772;48.646;8.906;2023-09-12T22:32:02;96068.81;;;19.59;100.00
4598;BME280;62772;48.646;8.906;2023-09-12T22:37:02;96069.09;;;19.47;100.00
4598;BME280;62772;48.646;8.906;2023-09-12T22:42:04;96064.28;;;19.70;100.00
4598;BME280;62772;48.646;8.906;2023-09-12T22:47:05;96071.59;;;19.66;100.00
4598;BME280;62772;48.646;8.906;2023-09-12T22:52:05;96082.44;;;19.66;100.00
4598;BME280;62772;48.646;8.906;2023-09-12T22:57:06;96097.78;;;19.51;100.00
4598;BME280;62772;48.646;8.906;2023-09-12T23:02:06;96106.44;;;19.68;100.00
4598;BME280;62772;48.646;8.906;2023-09-12T23:07:07;96108.31;;;19.60;100.00
4598;BME280;62772;48.646;8.906;2023-09-12T23:12:08;96117.81;;;19.81;100.00
4598;BME280;62772;48.646;8.906;2023-09-12T23:17:08;96113.16;;;19.81;100.00
4598;BME280;62772;48.646;8.906;2023-09-12T23:22:08;96125.88;;;19.77;100.00
4598;BME280;62772;48.646;8.906;2023-09-12T23:27:09;96145.88;;;20.06;100.00
4598;BME280;62772;48.646;8.906;2023-09-12T23:32:10;96156.34;;;20.08;100.00
4598;BME280;62772;48.646;8.906;2023-09-12T23:37:10;96160.47;;;19.94;100.00
4598;BME280;62772;48.646;8.906;2023-09-12T23:42:12;96169.56;;;19.72;100.00
4598;BME280;62772;48.646;8.906;2023-09-12T23:47:13;96186.13;;;20.04;100.00
4598;BME280;62772;48.646;8.906;2023-09-12T23:52:14;96192.97;;;19.91;100.00
4598;BME280;62772;48.646;8.906;2023-09-12T23:57:14;96187.91;;;19.86;100.00
